createdAt,value
2023-04-26T00:00:10.025Z,3.80
2023-04-26T00:02:38.471Z,3.80
2023-04-26T00:05:09.423Z,3.70
2023-04-26T00:07:38.993Z,3.70
2023-04-26T00:10:08.399Z,3.70
2023-04-26T00:12:36.939Z,3.70
2023-04-26T00:15:05.529Z,3.70
2023-04-26T00:17:35.146Z,3.60
2023-04-26T00:20:04.303Z,3.50
2023-04-26T00:22:32.436Z,3.40
2023-04-26T00:25:00.451Z,3.40
2023-04-26T00:27:28.528Z,3.40
2023-04-26T00:29:56.590Z,3.50
2023-04-26T00:32:24.743Z,3.50
2023-04-26T00:34:54.195Z,3.50
2023-04-26T00:37:23.318Z,3.40
2023-04-26T00:39:51.542Z,3.50
2023-04-26T00:42:20.472Z,3.40
2023-04-26T00:44:50.306Z,3.40
2023-04-26T00:47:18.688Z,3.40
2023-04-26T00:49:46.961Z,3.30
2023-04-26T00:52:16.628Z,3.30
2023-04-26T00:54:44.924Z,3.30
2023-04-26T00:57:13.779Z,3.30
2023-04-26T00:59:42.184Z,3.30
2023-04-26T01:02:10.340Z,3.20
2023-04-26T01:04:40.723Z,3.30
2023-04-26T01:07:08.903Z,3.30
2023-04-26T01:09:38.336Z,3.30
2023-04-26T01:12:08.173Z,3.30
2023-04-26T01:14:37.222Z,3.30
2023-04-26T01:17:06.682Z,3.30
2023-04-26T01:19:37.397Z,3.20
2023-04-26T01:22:05.536Z,3.10
2023-04-26T01:24:37.268Z,3.10
2023-04-26T01:27:05.322Z,3.10
2023-04-26T01:29:33.566Z,3.00
2023-04-26T01:32:01.650Z,3.00
2023-04-26T01:34:29.725Z,3.00
2023-04-26T01:36:57.773Z,2.90
2023-04-26T01:39:25.891Z,2.90
2023-04-26T01:41:55.295Z,2.90
2023-04-26T01:44:23.357Z,3.00
2023-04-26T01:46:51.501Z,3.00
2023-04-26T01:49:19.664Z,3.00
2023-04-26T01:51:47.758Z,3.00
2023-04-26T01:54:15.869Z,3.00
2023-04-26T01:56:43.889Z,2.90
2023-04-26T01:59:13.339Z,2.90
2023-04-26T02:01:43.109Z,2.90
2023-04-26T02:04:11.273Z,2.90
2023-04-26T02:06:39.442Z,3.00
2023-04-26T02:09:09.278Z,2.90
2023-04-26T02:11:37.364Z,2.90
2023-04-26T02:14:05.626Z,3.00
2023-04-26T02:16:35.203Z,2.90
2023-04-26T02:19:05.299Z,2.90
2023-04-26T02:21:33.505Z,2.90
2023-04-26T02:24:01.667Z,2.90
2023-04-26T02:26:29.673Z,2.90
2023-04-26T02:28:57.797Z,2.80
2023-04-26T02:31:25.830Z,2.90
2023-04-26T02:33:56.343Z,2.90
2023-04-26T02:36:24.516Z,2.80
2023-04-26T02:38:52.826Z,2.80
2023-04-26T02:41:21.096Z,2.80
2023-04-26T02:43:49.168Z,2.80
2023-04-26T02:46:17.484Z,2.80
2023-04-26T02:48:45.625Z,2.90
2023-04-26T02:51:16.075Z,2.80
2023-04-26T02:53:44.187Z,2.80
2023-04-26T02:56:12.273Z,2.80
2023-04-26T02:58:40.362Z,2.70
2023-04-26T03:01:08.664Z,2.70
2023-04-26T03:03:37.376Z,2.70
2023-04-26T03:06:06.368Z,2.70
2023-04-26T03:08:36.733Z,2.80
2023-04-26T03:11:05.004Z,2.70
2023-04-26T03:13:33.055Z,2.70
2023-04-26T03:16:01.150Z,2.70
2023-04-26T03:18:29.361Z,2.70
2023-04-26T03:20:57.454Z,2.60
2023-04-26T03:23:26.736Z,2.60
2023-04-26T03:25:56.266Z,2.60
2023-04-26T03:28:24.320Z,2.60
2023-04-26T03:30:52.374Z,2.60
2023-04-26T03:33:20.465Z,2.50
2023-04-26T03:35:48.501Z,2.40
2023-04-26T03:38:17.346Z,2.50
2023-04-26T03:40:45.368Z,2.50
2023-04-26T03:43:14.790Z,2.50
2023-04-26T03:45:42.903Z,2.40
2023-04-26T03:48:11.036Z,2.40
2023-04-26T03:50:39.586Z,2.40
2023-04-26T03:53:07.762Z,2.40
2023-04-26T03:55:35.966Z,2.40
2023-04-26T03:58:07.794Z,2.40
2023-04-26T04:00:38.839Z,2.20
2023-04-26T04:03:07.851Z,2.30
2023-04-26T04:05:36.415Z,2.30
2023-04-26T04:08:05.111Z,2.30
2023-04-26T04:10:34.305Z,2.10
2023-04-26T04:13:02.377Z,2.20
2023-04-26T04:15:30.479Z,2.30
2023-04-26T04:18:00.083Z,2.20
2023-04-26T04:20:28.220Z,2.20
2023-04-26T04:22:57.762Z,2.20
2023-04-26T04:25:26.415Z,2.20
2023-04-26T04:27:54.502Z,2.20
2023-04-26T04:30:22.678Z,2.10
2023-04-26T04:32:50.794Z,2.10
2023-04-26T04:35:20.888Z,2.10
2023-04-26T04:37:50.112Z,2.10
2023-04-26T04:40:18.501Z,2.00
2023-04-26T04:42:46.846Z,2.10
2023-04-26T04:45:15.524Z,2.10
2023-04-26T04:47:43.602Z,2.20
2023-04-26T04:50:11.816Z,2.20
2023-04-26T04:52:42.567Z,2.30
2023-04-26T04:55:11.068Z,2.30
2023-04-26T04:57:40.625Z,2.30
2023-04-26T05:00:12.561Z,2.40
2023-04-26T05:02:40.759Z,2.40
2023-04-26T05:05:10.977Z,2.40
2023-04-26T05:07:39.105Z,2.50
2023-04-26T05:10:10.386Z,2.60
2023-04-26T05:12:38.448Z,2.80
2023-04-26T05:15:07.628Z,2.90
2023-04-26T05:17:35.803Z,3.00
2023-04-26T05:20:07.944Z,3.20
2023-04-26T05:22:36.848Z,3.20
2023-04-26T05:25:05.807Z,3.40
2023-04-26T05:27:36.756Z,3.40
2023-04-26T05:30:05.844Z,3.50
2023-04-26T05:32:34.015Z,3.50
2023-04-26T05:35:02.886Z,3.40
2023-04-26T05:37:31.665Z,3.50
2023-04-26T05:39:59.854Z,3.60
2023-04-26T05:42:27.942Z,3.70
2023-04-26T05:45:00.026Z,3.80
2023-04-26T05:47:28.183Z,3.80
2023-04-26T05:49:56.289Z,4.00
2023-04-26T05:52:24.514Z,4.20
2023-04-26T05:54:52.648Z,4.40
2023-04-26T05:57:20.919Z,4.50
2023-04-26T05:59:49.135Z,4.60
2023-04-26T06:02:18.625Z,4.90
2023-04-26T06:04:47.875Z,5.30
2023-04-26T06:07:16.054Z,5.40
2023-04-26T06:09:44.482Z,5.60
2023-04-26T06:12:12.564Z,5.90
2023-04-26T06:14:40.516Z,6.00
2023-04-26T06:17:08.958Z,5.90
2023-04-26T06:19:38.417Z,5.70
2023-04-26T06:22:06.580Z,5.70
2023-04-26T06:24:34.639Z,5.90
2023-04-26T06:27:02.749Z,6.00
2023-04-26T06:29:33.765Z,6.50
2023-04-26T06:32:01.944Z,7.00
2023-04-26T06:34:30.446Z,7.50
2023-04-26T06:36:59.873Z,7.50
2023-04-26T06:39:28.714Z,7.60
2023-04-26T06:41:56.939Z,7.50
2023-04-26T06:44:25.027Z,7.60
2023-04-26T06:46:55.467Z,7.70
2023-04-26T06:49:23.846Z,7.70
2023-04-26T06:51:52.926Z,7.80
2023-04-26T06:54:22.854Z,7.80
2023-04-26T06:56:50.945Z,7.90
2023-04-26T06:59:19.075Z,8.00
2023-04-26T07:01:47.216Z,7.90
2023-04-26T07:04:17.067Z,8.00
2023-04-26T07:06:46.029Z,8.00
2023-04-26T07:09:14.215Z,8.10
2023-04-26T07:11:43.608Z,8.20
2023-04-26T07:14:12.867Z,8.40
2023-04-26T07:16:41.255Z,8.60
2023-04-26T07:19:11.043Z,8.70
2023-04-26T07:21:39.170Z,8.70
2023-04-26T07:24:08.313Z,8.60
2023-04-26T07:26:37.034Z,8.50
2023-04-26T07:29:06.894Z,8.40
2023-04-26T07:31:34.910Z,8.40
2023-04-26T07:34:03.074Z,8.40
2023-04-26T07:36:31.578Z,8.40
2023-04-26T07:39:00.298Z,8.60
2023-04-26T07:41:28.472Z,8.50
2023-04-26T07:43:58.070Z,8.70
2023-04-26T07:46:27.558Z,8.60
2023-04-26T07:48:55.993Z,8.60
2023-04-26T07:51:24.106Z,8.40
2023-04-26T07:53:53.243Z,8.40
2023-04-26T07:56:24.101Z,8.40
2023-04-26T07:58:52.220Z,8.50
2023-04-26T08:01:20.392Z,8.70
2023-04-26T08:03:50.230Z,8.80
2023-04-26T08:06:18.819Z,9.00
2023-04-26T08:08:50.635Z,8.90
2023-04-26T08:11:18.975Z,9.00
2023-04-26T08:13:47.505Z,9.20
2023-04-26T08:16:16.680Z,9.30
2023-04-26T08:18:46.804Z,9.50
2023-04-26T08:21:16.969Z,9.60
2023-04-26T08:23:45.071Z,9.70
2023-04-26T08:26:13.232Z,9.70
2023-04-26T08:28:41.394Z,9.80
2023-04-26T08:31:10.187Z,9.90
2023-04-26T08:33:38.404Z,10.10
2023-04-26T08:36:08.210Z,10.40
2023-04-26T08:38:37.703Z,10.60
2023-04-26T08:41:06.595Z,10.50
2023-04-26T08:43:38.080Z,10.60
2023-04-26T08:46:10.396Z,10.90
2023-04-26T08:48:38.958Z,11.20
2023-04-26T08:51:10.124Z,11.80
2023-04-26T08:53:41.047Z,11.90
2023-04-26T08:56:11.427Z,11.20
2023-04-26T08:58:43.511Z,11.30
2023-04-26T09:01:15.346Z,11.20
2023-04-26T09:03:43.592Z,11.20
2023-04-26T09:06:12.769Z,10.90
2023-04-26T09:08:43.968Z,10.50
2023-04-26T09:11:12.082Z,10.20
2023-04-26T09:13:40.159Z,10.20
2023-04-26T09:16:08.783Z,10.10
2023-04-26T09:18:47.971Z,9.90
2023-04-26T09:21:19.015Z,9.90
2023-04-26T09:24:09.209Z,9.80
2023-04-26T09:26:37.325Z,9.80
2023-04-26T09:29:23.312Z,9.60
2023-04-26T09:31:51.600Z,9.60
2023-04-26T09:34:19.700Z,9.60
2023-04-26T09:36:49.083Z,9.50
2023-04-26T09:39:31.786Z,9.50
2023-04-26T09:42:00.005Z,9.40
2023-04-26T09:44:30.114Z,9.30
2023-04-26T09:47:02.968Z,9.30
2023-04-26T09:49:33.788Z,9.30
2023-04-26T09:52:06.179Z,9.30
2023-04-26T09:54:46.145Z,9.30
2023-04-26T09:57:16.340Z,9.20
2023-04-26T09:59:45.966Z,9.20
2023-04-26T10:02:20.465Z,9.20
2023-04-26T10:04:49.558Z,9.20
2023-04-26T10:07:19.198Z,9.30
2023-04-26T10:09:49.354Z,9.40
2023-04-26T10:12:18.911Z,9.60
2023-04-26T10:14:48.095Z,9.70
2023-04-26T10:17:16.328Z,9.80
2023-04-26T10:19:46.524Z,10.10
2023-04-26T10:22:21.673Z,10.30
2023-04-26T10:24:51.665Z,10.40
2023-04-26T10:27:51.120Z,10.50
2023-04-26T10:30:24.052Z,11.00
2023-04-26T10:33:23.759Z,11.30
2023-04-26T10:36:04.922Z,11.60
2023-04-26T10:38:33.356Z,11.60
2023-04-26T10:41:32.200Z,11.70
2023-04-26T10:44:19.570Z,11.60
2023-04-26T10:46:51.558Z,11.40
2023-04-26T10:49:24.950Z,11.30
2023-04-26T10:52:14.917Z,11.20
2023-04-26T10:54:56.296Z,10.80
2023-04-26T10:57:47.960Z,10.60
2023-04-26T11:00:31.376Z,10.30
2023-04-26T11:03:08.967Z,10.30
2023-04-26T11:05:38.957Z,10.20
2023-04-26T11:08:09.426Z,10.10
2023-04-26T11:10:41.063Z,10.00
2023-04-26T11:13:10.928Z,10.10
2023-04-26T11:15:39.075Z,10.00
2023-04-26T11:18:07.246Z,9.80
2023-04-26T11:20:35.586Z,9.90
2023-04-26T11:23:03.770Z,9.80
2023-04-26T11:25:31.855Z,9.90
2023-04-26T11:28:04.302Z,10.00
2023-04-26T11:30:34.393Z,10.10
2023-04-26T11:33:04.165Z,10.20
2023-04-26T11:35:36.044Z,10.20
2023-04-26T11:38:06.637Z,10.30
2023-04-26T11:40:36.668Z,10.50
2023-04-26T11:43:06.729Z,10.60
2023-04-26T11:45:37.227Z,10.70
2023-04-26T11:48:07.432Z,10.90
2023-04-26T11:50:37.681Z,10.80
2023-04-26T11:53:07.337Z,10.80
2023-04-26T11:55:37.007Z,10.90
2023-04-26T11:58:13.170Z,11.00
2023-04-26T12:00:58.004Z,11.10
2023-04-26T12:03:31.176Z,11.00
2023-04-26T12:05:59.427Z,11.10
2023-04-26T12:08:28.461Z,11.30
2023-04-26T12:11:01.064Z,11.30
2023-04-26T12:13:30.128Z,11.50
2023-04-26T12:15:59.745Z,11.70
2023-04-26T12:18:32.823Z,12.00
2023-04-26T12:21:02.339Z,12.10
2023-04-26T12:23:39.340Z,11.80
2023-04-26T12:26:11.064Z,11.80
2023-04-26T12:28:39.169Z,11.80
2023-04-26T12:31:09.065Z,11.80
2023-04-26T12:33:37.454Z,11.50
2023-04-26T12:36:09.962Z,12.30
2023-04-26T12:38:38.402Z,13.60
2023-04-26T12:41:06.993Z,14.00
2023-04-26T12:43:35.070Z,13.90
2023-04-26T12:46:03.320Z,13.50
2023-04-26T12:48:32.928Z,13.00
2023-04-26T12:51:01.084Z,12.80
2023-04-26T12:53:29.213Z,13.40
2023-04-26T12:55:57.288Z,14.10
2023-04-26T12:58:25.537Z,14.20
2023-04-26T13:00:53.650Z,14.00
2023-04-26T13:03:21.846Z,13.50
2023-04-26T13:05:51.597Z,13.60
2023-04-26T13:08:19.802Z,14.00
2023-04-26T13:10:47.903Z,14.00
2023-04-26T13:13:16.030Z,14.10
2023-04-26T13:15:44.118Z,14.10
2023-04-26T13:18:12.615Z,13.70
2023-04-26T13:20:41.013Z,13.50
2023-04-26T13:23:11.283Z,13.60
2023-04-26T13:25:39.647Z,13.60
2023-04-26T13:28:07.726Z,13.50
2023-04-26T13:30:36.152Z,13.60
2023-04-26T13:33:04.810Z,13.60
2023-04-26T13:35:33.129Z,13.60
2023-04-26T13:38:01.291Z,13.30
2023-04-26T13:40:30.725Z,13.60
2023-04-26T13:42:58.868Z,14.00
2023-04-26T13:45:27.594Z,13.90
2023-04-26T13:47:56.056Z,13.50
2023-04-26T13:50:24.216Z,13.30
2023-04-26T13:52:53.047Z,13.20
2023-04-26T13:55:21.278Z,12.90
2023-04-26T13:57:51.040Z,12.80
2023-04-26T14:00:19.899Z,13.10
2023-04-26T14:02:48.142Z,13.30
2023-04-26T14:05:17.106Z,13.70
2023-04-26T14:07:45.467Z,14.20
2023-04-26T14:10:14.193Z,14.70
2023-04-26T14:12:42.347Z,14.50
2023-04-26T14:15:12.910Z,14.10
2023-04-26T14:17:41.259Z,13.70
2023-04-26T14:20:11.530Z,13.50
2023-04-26T14:22:39.670Z,13.40
2023-04-26T14:25:08.178Z,13.00
2023-04-26T14:27:36.528Z,13.00
2023-04-26T14:30:05.636Z,12.90
2023-04-26T14:32:36.586Z,12.70
2023-04-26T14:35:05.237Z,12.60
2023-04-26T14:37:33.315Z,12.50
2023-04-26T14:40:01.708Z,12.40
2023-04-26T14:42:29.845Z,12.30
2023-04-26T14:44:59.860Z,12.10
2023-04-26T14:47:29.239Z,12.10
2023-04-26T14:49:59.745Z,12.00
2023-04-26T14:52:29.117Z,11.90
2023-04-26T14:54:57.448Z,11.80
2023-04-26T14:57:26.341Z,11.90
2023-04-26T14:59:54.457Z,11.80
2023-04-26T15:02:22.597Z,11.70
2023-04-26T15:04:50.964Z,11.70
2023-04-26T15:07:31.358Z,11.70
2023-04-26T15:10:01.604Z,11.90
2023-04-26T15:12:29.781Z,11.80
2023-04-26T15:14:57.820Z,11.90
2023-04-26T15:17:25.940Z,11.90
2023-04-26T15:19:54.392Z,11.90
2023-04-26T15:22:23.788Z,12.10
2023-04-26T15:24:51.857Z,12.10
2023-04-26T15:27:20.051Z,12.20
2023-04-26T15:29:48.183Z,12.20
2023-04-26T15:32:16.299Z,12.50
2023-04-26T15:34:45.192Z,12.40
2023-04-26T15:37:13.540Z,12.40
2023-04-26T15:39:43.028Z,12.30
2023-04-26T15:42:11.200Z,11.80
2023-04-26T15:44:39.412Z,11.80
2023-04-26T15:47:07.577Z,11.30
2023-04-26T15:49:35.702Z,11.10
2023-04-26T15:52:03.836Z,11.00
2023-04-26T15:54:32.096Z,10.80
2023-04-26T15:57:02.759Z,10.80
2023-04-26T15:59:31.188Z,11.10
2023-04-26T16:01:59.482Z,11.00
2023-04-26T16:04:27.912Z,10.90
2023-04-26T16:06:56.250Z,11.00
2023-04-26T16:09:25.923Z,10.60
2023-04-26T16:11:54.167Z,10.50
2023-04-26T16:14:23.529Z,10.70
2023-04-26T16:16:51.657Z,10.70
2023-04-26T16:19:19.705Z,10.70
2023-04-26T16:21:47.751Z,10.80
2023-04-26T16:24:16.613Z,10.50
2023-04-26T16:26:44.755Z,10.50
2023-04-26T16:29:13.263Z,10.60
2023-04-26T16:31:42.744Z,10.50
2023-04-26T16:34:11.386Z,10.70
2023-04-26T16:36:39.758Z,10.80
2023-04-26T16:39:08.928Z,10.60
2023-04-26T16:41:36.934Z,10.60
2023-04-26T16:44:05.183Z,10.80
2023-04-26T16:46:33.449Z,10.90
2023-04-26T16:49:04.350Z,10.90
2023-04-26T16:51:32.559Z,10.90
2023-04-26T16:54:00.666Z,10.80
2023-04-26T16:56:28.759Z,10.80
2023-04-26T16:58:57.528Z,10.90
2023-04-26T17:01:25.832Z,11.00
2023-04-26T17:03:54.204Z,10.70
2023-04-26T17:06:24.475Z,10.90
2023-04-26T17:08:52.538Z,10.90
2023-04-26T17:11:20.668Z,10.80
2023-04-26T17:13:48.803Z,10.70
2023-04-26T17:16:17.045Z,10.70
2023-04-26T17:18:45.295Z,10.80
2023-04-26T17:21:13.418Z,10.60
2023-04-26T17:23:42.798Z,10.50
2023-04-26T17:26:10.922Z,10.60
2023-04-26T17:28:39.448Z,10.60
2023-04-26T17:31:07.756Z,10.60
2023-04-26T17:33:36.891Z,10.40
2023-04-26T17:36:05.538Z,10.50
2023-04-26T17:38:33.757Z,10.50
2023-04-26T17:41:03.289Z,10.50
2023-04-26T17:43:31.599Z,10.40
2023-04-26T17:45:59.789Z,10.40
2023-04-26T17:48:29.088Z,10.40
2023-04-26T17:50:58.085Z,10.30
2023-04-26T17:53:26.596Z,10.30
2023-04-26T17:55:55.285Z,10.30
2023-04-26T17:58:24.918Z,10.20
2023-04-26T18:00:53.826Z,10.10
2023-04-26T18:03:22.310Z,10.10
2023-04-26T18:05:50.807Z,10.10
2023-04-26T18:08:18.874Z,10.00
2023-04-26T18:10:48.425Z,10.00
2023-04-26T18:13:16.988Z,10.00
2023-04-26T18:15:46.821Z,10.00
2023-04-26T18:18:15.181Z,9.90
2023-04-26T18:20:43.575Z,9.90
2023-04-26T18:23:12.273Z,9.80
2023-04-26T18:25:41.708Z,9.80
2023-04-26T18:28:10.101Z,9.70
2023-04-26T18:30:38.615Z,9.70
2023-04-26T18:33:08.496Z,9.70
2023-04-26T18:35:36.731Z,9.60
2023-04-26T18:38:04.886Z,9.60
2023-04-26T18:40:33.014Z,9.50
2023-04-26T18:43:01.249Z,9.50
2023-04-26T18:45:29.512Z,9.50
2023-04-26T18:47:57.678Z,9.40
2023-04-26T18:50:27.159Z,9.30
2023-04-26T18:52:55.452Z,9.30
2023-04-26T18:55:23.702Z,9.30
2023-04-26T18:57:51.934Z,9.20
2023-04-26T19:00:20.710Z,9.20
2023-04-26T19:02:48.947Z,9.20
2023-04-26T19:05:17.184Z,9.10
2023-04-26T19:07:47.030Z,9.10
2023-04-26T19:10:16.468Z,9.00
2023-04-26T19:12:44.585Z,9.00
2023-04-26T19:15:13.049Z,9.00
2023-04-26T19:17:41.824Z,9.00
2023-04-26T19:20:12.976Z,8.90
2023-04-26T19:22:41.872Z,8.90
2023-04-26T19:25:11.913Z,8.80
2023-04-26T19:27:40.163Z,8.80
2023-04-26T19:30:09.541Z,8.70
2023-04-26T19:32:37.706Z,8.70
2023-04-26T19:35:07.371Z,8.70
2023-04-26T19:37:35.456Z,8.70
2023-04-26T19:40:05.828Z,8.60
2023-04-26T19:42:35.434Z,8.60
2023-04-26T19:45:03.667Z,8.60
2023-04-26T19:47:32.079Z,8.50
2023-04-26T19:50:00.815Z,8.50
2023-04-26T19:52:28.921Z,8.50
2023-04-26T19:54:57.094Z,8.40
2023-04-26T19:57:25.152Z,8.40
2023-04-26T19:59:55.722Z,8.30
2023-04-26T20:02:24.052Z,8.30
2023-04-26T20:04:52.401Z,8.20
2023-04-26T20:07:21.689Z,8.20
2023-04-26T20:09:49.844Z,8.10
2023-04-26T20:12:17.988Z,8.10
2023-04-26T20:14:46.499Z,8.00
2023-04-26T20:17:16.965Z,8.00
2023-04-26T20:19:45.131Z,7.90
2023-04-26T20:22:13.294Z,7.80
2023-04-26T20:24:42.506Z,7.80
2023-04-26T20:27:10.628Z,7.70
2023-04-26T20:29:38.678Z,7.70
2023-04-26T20:32:06.878Z,7.60
2023-04-26T20:34:36.436Z,7.50
2023-04-26T20:37:04.518Z,7.40
2023-04-26T20:39:33.818Z,7.40
2023-04-26T20:42:02.426Z,7.30
2023-04-26T20:44:31.090Z,7.30
2023-04-26T20:46:59.192Z,7.20
2023-04-26T20:49:28.299Z,7.10
2023-04-26T20:51:57.923Z,7.10
2023-04-26T20:54:26.226Z,7.00
2023-04-26T20:56:54.320Z,6.90
2023-04-26T20:59:24.442Z,6.90
2023-04-26T21:01:53.888Z,6.80
2023-04-26T21:04:22.726Z,6.80
2023-04-26T21:06:51.137Z,6.70
2023-04-26T21:09:20.562Z,6.70
2023-04-26T21:11:48.676Z,6.60
2023-04-26T21:14:16.781Z,6.50
2023-04-26T21:16:45.062Z,6.50
2023-04-26T21:19:13.211Z,6.40
2023-04-26T21:21:41.359Z,6.40
2023-04-26T21:24:09.577Z,6.40
2023-04-26T21:26:39.028Z,6.30
2023-04-26T21:29:07.952Z,6.20
2023-04-26T21:31:36.899Z,6.20
2023-04-26T21:34:05.533Z,6.20
2023-04-26T21:36:33.653Z,6.10
2023-04-26T21:39:01.748Z,6.10
2023-04-26T21:41:29.851Z,6.00
2023-04-26T21:43:59.390Z,6.00
2023-04-26T21:46:27.675Z,6.00
2023-04-26T21:48:56.079Z,5.90
2023-04-26T21:51:24.469Z,5.90
2023-04-26T21:53:52.569Z,5.90
2023-04-26T21:56:20.851Z,5.80
2023-04-26T21:58:48.966Z,5.80
2023-04-26T22:01:18.546Z,5.80
2023-04-26T22:03:47.056Z,5.70
2023-04-26T22:06:15.311Z,5.70
2023-04-26T22:08:43.362Z,5.70
2023-04-26T22:11:11.575Z,5.60
2023-04-26T22:13:39.736Z,5.60
2023-04-26T22:16:08.262Z,5.60
2023-04-26T22:18:37.740Z,5.50
2023-04-26T22:21:06.219Z,5.50
2023-04-26T22:23:34.502Z,5.40
2023-04-26T22:26:02.690Z,5.50
2023-04-26T22:28:30.906Z,5.30
2023-04-26T22:30:59.031Z,5.30
2023-04-26T22:33:27.181Z,5.30
2023-04-26T22:35:58.088Z,5.30
2023-04-26T22:38:26.353Z,5.20
2023-04-26T22:40:54.909Z,5.20
2023-04-26T22:43:23.724Z,5.20
2023-04-26T22:45:51.966Z,5.30
2023-04-26T22:48:20.160Z,5.20
2023-04-26T22:50:49.754Z,5.10
2023-04-26T22:53:19.330Z,5.10
2023-04-26T22:55:47.427Z,5.10
2023-04-26T22:58:17.199Z,5.00
2023-04-26T23:00:45.463Z,5.00
2023-04-26T23:03:13.686Z,5.00
2023-04-26T23:05:41.900Z,5.00
2023-04-26T23:08:10.042Z,4.90
2023-04-26T23:10:39.821Z,4.80
2023-04-26T23:13:07.932Z,4.80
2023-04-26T23:15:36.125Z,4.80
2023-04-26T23:18:05.337Z,4.70
2023-04-26T23:20:33.536Z,4.70
2023-04-26T23:23:01.610Z,4.80
2023-04-26T23:25:29.685Z,4.80
2023-04-26T23:27:59.265Z,4.70
2023-04-26T23:30:27.461Z,4.70
2023-04-26T23:32:55.715Z,4.60
2023-04-26T23:35:23.862Z,4.50
2023-04-26T23:37:52.507Z,4.50
2023-04-26T23:40:20.697Z,4.40
2023-04-26T23:42:48.767Z,4.40
2023-04-26T23:45:19.266Z,4.30
2023-04-26T23:47:47.470Z,4.30
2023-04-26T23:50:15.686Z,4.30
2023-04-26T23:52:43.818Z,4.40
2023-04-26T23:55:13.523Z,4.30
2023-04-26T23:57:41.823Z,4.30
